createdAt,value
2018-07-06T00:02:19.078Z,6.97
2018-07-06T00:04:58.801Z,4.93
2018-07-06T00:07:38.542Z,5.20
2018-07-06T00:10:18.107Z,6.37
2018-07-06T00:12:57.847Z,4.43
2018-07-06T00:15:31.596Z,4.53
2018-07-06T00:18:11.374Z,6.13
2018-07-06T00:20:50.881Z,6.73
2018-07-06T00:23:30.559Z,6.10
2018-07-06T00:26:11.116Z,6.53
2018-07-06T00:28:51.077Z,5.80
2018-07-06T00:31:30.705Z,5.10
2018-07-06T00:34:10.422Z,6.40
2018-07-06T00:36:50.197Z,4.80
2018-07-06T00:39:29.826Z,4.37
2018-07-06T00:42:10.267Z,8.20
2018-07-06T00:44:50.083Z,5.67
2018-07-06T00:47:29.710Z,7.53
2018-07-06T00:50:09.309Z,7.43
2018-07-06T00:52:49.032Z,9.93
2018-07-06T00:55:28.663Z,6.10
2018-07-06T00:58:02.326Z,5.93
2018-07-06T01:00:41.980Z,8.23
2018-07-06T01:03:21.544Z,8.30
2018-07-06T01:06:01.259Z,6.30
2018-07-06T01:08:40.922Z,8.17
2018-07-06T01:11:20.566Z,7.97
2018-07-06T01:14:00.295Z,21.60
2018-07-06T01:16:39.932Z,11.70
2018-07-06T01:19:19.535Z,8.33
2018-07-06T01:21:59.203Z,10.03
2018-07-06T01:24:38.984Z,8.30
2018-07-06T01:27:18.756Z,8.13
2018-07-06T01:29:58.530Z,9.37
2018-07-06T01:32:38.298Z,8.50
2018-07-06T01:35:17.892Z,11.37
2018-07-06T01:37:57.653Z,7.27
2018-07-06T01:40:37.411Z,11.80
2018-07-06T01:43:17.047Z,8.23
2018-07-06T01:45:56.663Z,8.67
2018-07-06T01:48:36.276Z,7.07
2018-07-06T01:51:16.056Z,6.40
2018-07-06T01:53:55.808Z,13.13
2018-07-06T01:56:35.671Z,10.13
2018-07-06T01:59:15.379Z,10.97
2018-07-06T02:01:54.995Z,9.97
2018-07-06T02:04:34.530Z,11.13
2018-07-06T02:07:14.082Z,10.73
2018-07-06T02:09:53.703Z,10.83
2018-07-06T02:12:33.580Z,10.47
2018-07-06T02:15:13.143Z,8.07
2018-07-06T02:17:52.775Z,9.63
2018-07-06T02:20:32.563Z,6.77
2018-07-06T02:23:12.302Z,11.07
2018-07-06T02:25:51.999Z,9.87
2018-07-06T02:28:31.717Z,8.50
2018-07-06T02:31:15.412Z,13.20
2018-07-06T02:33:56.799Z,10.03
2018-07-06T02:36:41.328Z,12.43
2018-07-06T02:39:21.166Z,11.33
2018-07-06T02:42:02.139Z,12.40
2018-07-06T02:44:42.334Z,16.50
2018-07-06T02:47:22.486Z,10.20
2018-07-06T02:50:02.294Z,9.03
2018-07-06T02:52:42.180Z,11.53
2018-07-06T02:55:22.492Z,10.23
2018-07-06T02:58:01.996Z,6.17
2018-07-06T03:00:41.631Z,11.07
2018-07-06T03:03:21.343Z,19.70
2018-07-06T03:06:01.867Z,14.60
2018-07-06T03:08:41.505Z,13.30
2018-07-06T03:11:21.296Z,13.17
2018-07-06T03:14:00.951Z,8.03
2018-07-06T03:16:40.514Z,12.67
2018-07-06T03:19:20.201Z,10.93
2018-07-06T03:21:59.736Z,11.07
2018-07-06T03:24:39.424Z,13.30
2018-07-06T03:27:19.465Z,10.67
2018-07-06T03:29:59.187Z,12.63
2018-07-06T03:32:38.976Z,9.23
2018-07-06T03:35:12.714Z,9.90
2018-07-06T03:37:52.454Z,14.73
2018-07-06T03:40:32.163Z,11.53
2018-07-06T03:43:11.933Z,17.00
2018-07-06T03:45:51.538Z,16.13
2018-07-06T03:48:31.144Z,13.93
2018-07-06T03:51:10.851Z,15.17
2018-07-06T03:53:50.679Z,16.83
2018-07-06T03:56:26.995Z,17.40
2018-07-06T03:59:06.743Z,16.73
2018-07-06T04:01:46.498Z,14.90
2018-07-06T04:04:26.265Z,14.37
2018-07-06T04:07:06.023Z,13.83
2018-07-06T04:09:45.692Z,13.67
2018-07-06T04:12:25.386Z,8.23
2018-07-06T04:15:05.066Z,15.47
2018-07-06T04:17:44.851Z,11.30
2018-07-06T04:20:24.669Z,11.23
2018-07-06T04:23:04.311Z,15.30
2018-07-06T04:25:43.987Z,7.90
2018-07-06T04:28:23.788Z,9.53
2018-07-06T04:31:03.547Z,12.13
2018-07-06T04:33:43.296Z,10.70
2018-07-06T04:36:23.126Z,10.37
2018-07-06T04:39:03.191Z,13.97
2018-07-06T04:41:42.791Z,18.70
2018-07-06T04:44:22.623Z,17.37
2018-07-06T04:47:02.335Z,11.60
2018-07-06T04:49:41.963Z,7.57
2018-07-06T04:52:15.656Z,9.30
2018-07-06T04:54:55.186Z,9.70
2018-07-06T04:57:35.072Z,11.67
2018-07-06T05:00:14.731Z,11.30
2018-07-06T05:02:54.319Z,12.97
2018-07-06T05:05:34.127Z,11.97
2018-07-06T05:08:13.891Z,12.30
2018-07-06T05:10:53.546Z,11.23
2018-07-06T05:13:33.182Z,9.53
2018-07-06T05:16:13.057Z,8.57
2018-07-06T05:18:52.791Z,12.27
2018-07-06T05:21:32.541Z,10.50
2018-07-06T05:24:12.221Z,7.83
2018-07-06T05:26:45.961Z,9.87
2018-07-06T05:29:25.660Z,9.07
2018-07-06T05:32:05.214Z,11.63
2018-07-06T05:34:44.937Z,10.60
2018-07-06T05:37:24.667Z,11.30
2018-07-06T05:40:04.342Z,8.23
2018-07-06T05:42:44.019Z,11.67
2018-07-06T05:45:23.735Z,7.37
2018-07-06T05:48:03.249Z,12.60
2018-07-06T05:50:42.859Z,12.47
2018-07-06T05:53:22.530Z,12.20
2018-07-06T05:56:02.313Z,9.00
2018-07-06T05:58:42.188Z,8.50
2018-07-06T06:01:21.869Z,10.37
2018-07-06T06:04:01.707Z,13.57
2018-07-06T06:06:41.348Z,11.20
2018-07-06T06:22:15.703Z,10.73
2018-07-06T06:24:44.098Z,11.97
2018-07-06T06:27:12.427Z,11.10
2018-07-06T06:29:40.776Z,8.17
2018-07-06T06:32:09.792Z,9.53
2018-07-06T06:34:38.126Z,10.33
2018-07-06T06:37:06.420Z,9.57
2018-07-06T06:39:34.836Z,10.70
2018-07-06T06:42:03.533Z,11.40
2018-07-06T06:44:31.906Z,10.43
2018-07-06T06:47:00.691Z,8.30
2018-07-06T06:49:30.284Z,14.47
2018-07-06T06:51:59.175Z,15.43
2018-07-06T06:54:27.613Z,11.17
2018-07-06T06:56:55.979Z,7.93
2018-07-06T06:59:24.067Z,9.60
2018-07-06T07:01:52.471Z,12.53
2018-07-06T07:04:21.391Z,10.17
2018-07-06T07:06:49.750Z,11.60
2018-07-06T07:09:18.122Z,9.27
2018-07-06T07:11:46.445Z,9.70
2018-07-06T07:14:14.892Z,10.57
2018-07-06T07:16:43.305Z,9.03
2018-07-06T07:19:11.608Z,12.60
2018-07-06T07:21:39.924Z,8.80
2018-07-06T07:24:08.283Z,11.77
2018-07-06T07:26:36.696Z,10.53
2018-07-06T07:29:05.086Z,8.43
2018-07-06T07:31:33.479Z,14.10
2018-07-06T07:34:01.893Z,10.50
2018-07-06T07:36:30.238Z,8.47
2018-07-06T07:38:58.702Z,11.27
2018-07-06T07:41:26.998Z,11.07
2018-07-06T07:43:55.075Z,11.70
2018-07-06T07:46:23.544Z,12.40
2018-07-06T07:48:51.884Z,12.53
2018-07-06T07:52:12.025Z,14.97
2018-07-06T07:54:47.314Z,15.97
2018-07-06T07:57:15.745Z,11.73
2018-07-06T07:59:44.458Z,12.27
2018-07-06T08:02:13.026Z,11.30
2018-07-06T08:04:41.901Z,12.07
2018-07-06T08:07:10.289Z,11.30
2018-07-06T08:09:38.716Z,6.80
2018-07-06T08:12:07.120Z,8.77
2018-07-06T08:14:35.481Z,11.17
2018-07-06T08:17:03.842Z,15.97
2018-07-06T08:19:32.219Z,9.93
2018-07-06T08:22:00.596Z,11.23
2018-07-06T08:24:28.940Z,8.60
2018-07-06T08:26:57.280Z,8.10
2018-07-06T08:29:25.630Z,9.47
2018-07-06T08:31:54.027Z,9.10
2018-07-06T08:34:27.597Z,9.30
2018-07-06T08:37:54.236Z,11.40
2018-07-06T08:40:23.729Z,9.90
2018-07-06T08:42:53.490Z,7.10
2018-07-06T08:45:21.928Z,5.80
2018-07-06T08:47:50.315Z,11.77
2018-07-06T08:50:18.686Z,6.83
2018-07-06T08:52:48.347Z,4.33
2018-07-06T08:55:17.048Z,6.47
2018-07-06T08:57:47.198Z,6.80
2018-07-06T09:00:16.232Z,5.53
2018-07-06T09:02:44.587Z,7.63
2018-07-06T09:05:13.435Z,4.23
2018-07-06T09:07:41.569Z,4.97
2018-07-06T09:10:09.566Z,3.03
2018-07-06T09:12:38.339Z,5.33
2018-07-06T09:15:07.225Z,2.43
2018-07-06T09:17:35.696Z,3.63
2018-07-06T09:20:04.189Z,6.47
2018-07-06T09:22:32.721Z,5.07
2018-07-06T09:25:04.466Z,3.20
2018-07-06T09:27:32.823Z,2.20
2018-07-06T09:30:01.176Z,2.17
2018-07-06T09:32:29.653Z,3.37
2018-07-06T09:34:58.801Z,3.43
2018-07-06T09:37:27.125Z,3.97
2018-07-06T09:39:55.520Z,3.33
2018-07-06T09:42:23.935Z,5.43
2018-07-06T09:44:52.307Z,3.43
2018-07-06T09:47:20.700Z,3.90
2018-07-06T09:49:49.177Z,5.17
2018-07-06T09:52:17.310Z,6.60
2018-07-06T09:54:45.698Z,2.70
2018-07-06T09:57:14.081Z,3.80
2018-07-06T09:59:42.462Z,8.10
2018-07-06T10:02:10.809Z,5.27
2018-07-06T10:04:39.196Z,4.27
2018-07-06T10:07:07.545Z,5.23
2018-07-06T10:09:35.980Z,5.97
2018-07-06T10:12:04.340Z,3.97
2018-07-06T10:14:32.698Z,4.87
2018-07-06T10:17:01.171Z,4.83
2018-07-06T10:19:29.720Z,3.23
2018-07-06T10:21:58.096Z,4.70
2018-07-06T10:24:26.448Z,3.90
2018-07-06T10:26:54.755Z,6.40
2018-07-06T10:29:31.397Z,5.07
2018-07-06T10:32:24.160Z,3.80
2018-07-06T10:34:52.567Z,6.10
2018-07-06T10:37:21.149Z,3.00
2018-07-06T10:39:50.124Z,3.40
2018-07-06T10:42:18.469Z,4.93
2018-07-06T10:44:46.818Z,4.03
2018-07-06T10:47:15.247Z,3.27
2018-07-06T10:49:43.744Z,4.63
2018-07-06T10:52:12.971Z,9.03
2018-07-06T10:54:42.289Z,4.53
2018-07-06T10:57:10.671Z,3.37
2018-07-06T10:59:39.155Z,4.20
2018-07-06T11:02:07.695Z,7.00
2018-07-06T11:04:36.014Z,4.00
2018-07-06T11:07:04.396Z,4.30
2018-07-06T11:09:33.426Z,4.23
2018-07-06T11:12:01.841Z,4.90
2018-07-06T11:14:30.214Z,2.80
2018-07-06T11:16:58.631Z,6.20
2018-07-06T11:19:27.099Z,5.13
2018-07-06T11:21:55.486Z,4.30
2018-07-06T11:24:23.831Z,4.67
2018-07-06T11:26:52.207Z,4.40
2018-07-06T11:29:20.546Z,6.60
2018-07-06T11:31:48.911Z,8.47
2018-07-06T11:34:17.257Z,5.97
2018-07-06T11:36:45.332Z,7.27
2018-07-06T11:39:13.776Z,5.00
2018-07-06T11:41:42.114Z,5.00
2018-07-06T11:44:10.461Z,3.00
2018-07-06T11:46:39.443Z,4.37
2018-07-06T11:49:07.782Z,2.33
2018-07-06T11:51:36.193Z,3.37
2018-07-06T11:54:04.550Z,3.53
2018-07-06T11:56:32.851Z,2.63
2018-07-06T11:59:01.410Z,3.90
2018-07-06T12:01:29.839Z,2.20
2018-07-06T12:03:58.206Z,2.97
2018-07-06T12:06:26.544Z,2.37
2018-07-06T12:08:54.859Z,2.67
2018-07-06T12:11:23.296Z,3.73
2018-07-06T12:13:51.661Z,3.67
2018-07-06T12:16:20.011Z,2.83
2018-07-06T12:18:48.347Z,1.73
2018-07-06T12:21:16.697Z,8.07
2018-07-06T12:23:45.026Z,2.60
2018-07-06T12:26:13.372Z,3.17
2018-07-06T12:28:41.676Z,5.10
2018-07-06T12:31:09.988Z,5.87
2018-07-06T12:33:38.338Z,3.60
2018-07-06T12:36:06.799Z,3.13
2018-07-06T12:38:35.127Z,2.00
2018-07-06T12:41:03.434Z,1.90
2018-07-06T12:43:31.829Z,3.03
2018-07-06T12:46:00.232Z,3.57
2018-07-06T12:48:28.567Z,4.20
2018-07-06T12:50:56.901Z,5.33
2018-07-06T12:53:25.246Z,1.77
2018-07-06T12:55:53.575Z,2.73
2018-07-06T12:58:22.007Z,2.40
2018-07-06T13:00:50.306Z,5.37
2018-07-06T13:03:18.706Z,2.13
2018-07-06T13:05:47.119Z,3.40
2018-07-06T13:08:15.484Z,2.73
2018-07-06T13:10:43.791Z,4.50
2018-07-06T13:13:12.198Z,5.07
2018-07-06T13:15:40.533Z,1.77
2018-07-06T13:18:08.901Z,4.07
2018-07-06T13:20:37.195Z,1.47
2018-07-06T13:23:05.579Z,2.90
2018-07-06T13:25:33.879Z,2.07
2018-07-06T13:28:02.311Z,1.40
2018-07-06T13:30:30.672Z,3.07
2018-07-06T13:32:59.546Z,2.83
2018-07-06T13:35:27.860Z,1.43
2018-07-06T13:37:56.228Z,2.00
2018-07-06T13:40:24.580Z,2.03
2018-07-06T13:42:53.014Z,1.83
2018-07-06T13:45:21.379Z,2.50
2018-07-06T13:47:49.683Z,2.33
2018-07-06T13:50:17.983Z,3.30
2018-07-06T13:52:46.350Z,2.03
2018-07-06T13:55:14.679Z,3.67
2018-07-06T13:57:42.970Z,2.90
2018-07-06T14:00:11.290Z,1.63
2018-07-06T14:02:39.601Z,1.87
2018-07-06T14:05:07.970Z,5.53
2018-07-06T14:07:36.304Z,4.53
2018-07-06T14:10:05.167Z,1.50
2018-07-06T14:12:33.536Z,1.57
2018-07-06T14:15:01.876Z,2.00
2018-07-06T14:17:30.247Z,3.77
2018-07-06T14:19:58.527Z,5.50
2018-07-06T14:22:26.987Z,4.40
2018-07-06T14:24:55.287Z,3.40
2018-07-06T14:27:23.600Z,3.77
2018-07-06T14:29:51.951Z,2.40
2018-07-06T14:32:20.303Z,2.43
2018-07-06T14:34:48.600Z,5.37
2018-07-06T14:50:16.974Z,2.87
2018-07-06T14:52:45.283Z,4.60
2018-07-06T14:55:13.637Z,4.27
2018-07-06T14:57:41.918Z,4.83
2018-07-06T15:00:10.363Z,1.73
2018-07-06T15:02:38.715Z,2.80
2018-07-06T15:05:07.013Z,2.63
2018-07-06T15:07:35.327Z,2.37
2018-07-06T15:10:03.689Z,1.30
2018-07-06T15:12:32.089Z,4.30
2018-07-06T15:15:00.438Z,1.97
2018-07-06T15:17:28.740Z,2.80
2018-07-06T15:19:57.054Z,1.67
2018-07-06T15:22:25.433Z,1.37
2018-07-06T15:24:53.796Z,4.23
2018-07-06T15:27:22.119Z,1.80
2018-07-06T15:29:50.468Z,4.40
2018-07-06T15:32:18.810Z,1.67
2018-07-06T15:34:47.171Z,2.60
2018-07-06T15:37:15.557Z,2.30
2018-07-06T15:39:43.711Z,2.27
2018-07-06T15:42:12.111Z,2.40
2018-07-06T15:44:40.493Z,2.07
2018-07-06T15:47:08.944Z,1.30
2018-07-06T15:49:37.339Z,2.07
2018-07-06T15:52:05.628Z,1.23
2018-07-06T15:54:34.013Z,4.10
2018-07-06T15:57:02.437Z,3.67
2018-07-06T15:59:30.843Z,1.30
2018-07-06T16:02:00.113Z,4.17
2018-07-06T16:04:28.498Z,1.40
2018-07-06T16:06:56.794Z,1.63
2018-07-06T16:09:25.101Z,2.10
2018-07-06T16:11:53.180Z,2.93
2018-07-06T16:14:21.527Z,2.77
2018-07-06T16:16:49.918Z,2.43
2018-07-06T16:19:18.449Z,2.27
2018-07-06T16:21:46.751Z,1.77
2018-07-06T16:24:15.140Z,1.20
2018-07-06T16:26:43.726Z,3.10
2018-07-06T16:29:12.037Z,2.53
2018-07-06T16:31:40.539Z,3.37
2018-07-06T16:34:08.775Z,2.73
2018-07-06T16:36:37.076Z,1.53
2018-07-06T16:39:05.852Z,2.63
2018-07-06T16:41:34.194Z,3.07
2018-07-06T16:44:02.815Z,1.87
2018-07-06T16:46:31.902Z,2.73
2018-07-06T16:49:01.719Z,3.07
2018-07-06T16:51:30.090Z,2.80
2018-07-06T16:53:58.405Z,1.90
2018-07-06T16:56:27.205Z,2.47
2018-07-06T16:58:55.584Z,2.23
2018-07-06T17:01:23.932Z,1.47
2018-07-06T17:03:52.242Z,3.70
2018-07-06T17:06:20.576Z,1.90
2018-07-06T17:08:48.605Z,1.60
2018-07-06T17:11:16.942Z,2.73
2018-07-06T17:13:45.230Z,4.23
2018-07-06T17:16:13.634Z,1.73
2018-07-06T17:18:41.976Z,1.77
2018-07-06T17:21:10.335Z,1.33
2018-07-06T17:23:39.316Z,1.67
2018-07-06T17:26:07.796Z,3.23
2018-07-06T17:28:36.160Z,1.77
2018-07-06T17:31:04.510Z,2.93
2018-07-06T17:33:32.891Z,1.67
2018-07-06T17:36:01.287Z,2.83
2018-07-06T17:38:29.628Z,2.37
2018-07-06T17:40:58.005Z,1.63
2018-07-06T17:43:26.015Z,3.83
2018-07-06T17:45:54.125Z,1.20
2018-07-06T17:48:22.231Z,1.73
2018-07-06T17:50:50.276Z,1.33
2018-07-06T17:53:18.313Z,2.30
2018-07-06T17:55:46.416Z,2.30
2018-07-06T17:58:14.512Z,1.70
2018-07-06T18:00:43.303Z,2.43
2018-07-06T18:03:11.373Z,1.70
2018-07-06T18:05:39.610Z,1.93
2018-07-06T18:08:07.634Z,1.80
2018-07-06T18:10:35.713Z,3.30
2018-07-06T18:13:03.745Z,4.60
2018-07-06T18:15:31.918Z,2.17
2018-07-06T18:17:59.956Z,1.47
2018-07-06T18:20:28.033Z,1.33
2018-07-06T18:22:56.142Z,1.23
2018-07-06T18:25:24.262Z,1.50
2018-07-06T18:27:52.358Z,2.47
2018-07-06T18:30:21.614Z,2.07
2018-07-06T18:32:49.646Z,3.43
2018-07-06T18:35:17.750Z,2.37
2018-07-06T18:37:45.854Z,2.13
2018-07-06T18:40:14.201Z,1.87
2018-07-06T18:42:42.542Z,1.67
2018-07-06T18:45:10.595Z,1.37
2018-07-06T18:47:38.959Z,1.77
2018-07-06T18:50:06.982Z,1.77
2018-07-06T18:52:35.085Z,1.70
2018-07-06T18:55:03.112Z,3.07
2018-07-06T18:57:31.239Z,2.30
2018-07-06T18:59:59.306Z,2.07
2018-07-06T19:02:27.679Z,33.10
2018-07-06T19:04:55.789Z,8.20
2018-07-06T19:07:24.134Z,7.90
2018-07-06T19:09:52.536Z,8.57
2018-07-06T19:12:20.894Z,6.23
2018-07-06T19:14:49.226Z,5.60
2018-07-06T19:17:17.639Z,12.20
2018-07-06T19:19:45.939Z,7.93
2018-07-06T19:22:14.267Z,8.70
2018-07-06T19:24:42.668Z,14.03
2018-07-06T19:27:11.032Z,10.00
2018-07-06T19:29:39.451Z,6.83
2018-07-06T19:32:07.883Z,6.93
2018-07-06T19:34:36.217Z,10.17
2018-07-06T19:37:04.708Z,8.13
2018-07-06T19:39:33.255Z,8.60
2018-07-06T19:42:01.806Z,7.77
2018-07-06T19:44:30.358Z,9.30
2018-07-06T19:46:58.872Z,8.47
2018-07-06T19:49:27.246Z,7.03
2018-07-06T19:51:55.558Z,7.23
2018-07-06T19:54:23.874Z,8.13
2018-07-06T19:56:52.249Z,7.77
2018-07-06T19:59:20.655Z,6.73
2018-07-06T20:01:48.989Z,6.13
2018-07-06T20:04:18.236Z,8.90
2018-07-06T20:06:46.567Z,10.33
2018-07-06T20:09:15.872Z,5.67
2018-07-06T20:11:45.366Z,13.60
2018-07-06T20:14:13.723Z,6.23
2018-07-06T20:16:42.318Z,8.23
2018-07-06T20:19:10.772Z,5.40
2018-07-06T20:21:39.206Z,9.43
2018-07-06T20:24:07.652Z,9.10
2018-07-06T20:26:36.058Z,6.67
2018-07-06T20:29:04.533Z,7.70
2018-07-06T20:31:32.783Z,8.33
2018-07-06T20:34:01.180Z,10.23
2018-07-06T20:36:29.626Z,13.03
2018-07-06T20:38:57.995Z,7.83
2018-07-06T20:41:26.378Z,12.60
2018-07-06T20:43:54.705Z,11.37
2018-07-06T20:46:23.088Z,12.37
2018-07-06T20:48:51.447Z,12.57
2018-07-06T20:51:20.237Z,10.13
2018-07-06T20:53:48.687Z,10.00
2018-07-06T20:56:16.998Z,9.83
2018-07-06T20:58:45.307Z,10.23
2018-07-06T21:01:13.604Z,13.07
2018-07-06T21:03:41.946Z,13.83
2018-07-06T21:06:10.293Z,11.17
2018-07-06T21:08:38.417Z,7.93
2018-07-06T21:11:07.419Z,9.77
2018-07-06T21:13:36.106Z,12.93
2018-07-06T21:16:04.593Z,15.70
2018-07-06T21:18:33.080Z,13.43
2018-07-06T21:21:01.495Z,8.63
2018-07-06T21:23:29.963Z,13.87
2018-07-06T21:25:58.369Z,12.00
2018-07-06T21:28:26.765Z,8.53
2018-07-06T21:30:55.188Z,15.77
2018-07-06T21:33:23.564Z,11.50
2018-07-06T21:35:52.024Z,9.07
2018-07-06T21:38:20.365Z,8.63
2018-07-06T21:40:48.777Z,7.93
2018-07-06T21:43:17.195Z,9.57
2018-07-06T21:45:45.266Z,10.77
2018-07-06T21:48:13.690Z,8.00
2018-07-06T21:50:42.085Z,16.43
2018-07-06T21:53:10.493Z,9.07
2018-07-06T21:55:39.058Z,12.33
2018-07-06T21:58:07.443Z,8.43
2018-07-06T22:00:38.275Z,7.93
2018-07-06T22:03:07.539Z,11.23
2018-07-06T22:05:36.014Z,11.23
2018-07-06T22:08:05.591Z,13.57
2018-07-06T22:10:34.753Z,9.07
2018-07-06T22:13:03.198Z,11.27
2018-07-06T22:15:37.079Z,11.00
2018-07-06T22:18:05.603Z,8.67
2018-07-06T22:20:34.007Z,9.27
2018-07-06T22:23:02.440Z,9.30
2018-07-06T22:25:30.863Z,10.30
2018-07-06T22:27:59.557Z,10.40
2018-07-06T22:30:27.985Z,12.60
2018-07-06T22:32:56.383Z,11.67
2018-07-06T22:35:25.198Z,9.23
2018-07-06T22:37:53.703Z,8.03
2018-07-06T22:40:22.054Z,7.87
2018-07-06T22:42:51.227Z,9.60
2018-07-06T22:45:19.576Z,10.93
2018-07-06T22:47:48.018Z,9.30
2018-07-06T22:50:16.421Z,11.80
2018-07-06T22:52:44.805Z,10.80
2018-07-06T22:55:13.208Z,9.60
2018-07-06T22:57:41.555Z,13.90
2018-07-06T23:00:09.940Z,8.50
2018-07-06T23:02:38.375Z,7.33
2018-07-06T23:05:12.354Z,8.37
2018-07-06T23:07:40.751Z,6.83
2018-07-06T23:10:09.125Z,7.83
2018-07-06T23:12:38.274Z,11.80
2018-07-06T23:15:06.716Z,7.13
2018-07-06T23:17:35.135Z,5.87
2018-07-06T23:20:03.636Z,8.33
2018-07-06T23:23:09.241Z,7.70
2018-07-06T23:25:38.840Z,9.60
2018-07-06T23:28:07.247Z,6.70
2018-07-06T23:30:35.693Z,8.20
2018-07-06T23:33:04.927Z,12.10
2018-07-06T23:35:33.421Z,8.47
2018-07-06T23:38:01.806Z,6.13
2018-07-06T23:40:30.316Z,4.73
2018-07-06T23:42:58.768Z,11.07
2018-07-06T23:45:27.179Z,11.10
2018-07-06T23:47:55.639Z,8.63
2018-07-06T23:50:24.194Z,10.10
2018-07-06T23:52:52.706Z,8.83
2018-07-06T23:55:21.289Z,5.17
2018-07-06T23:57:50.052Z,6.33
